createdAt,value
2022-10-16T03:18:10.597Z,1.00
2022-10-16T03:20:38.899Z,1.00
2022-10-16T03:23:09.178Z,1.00
2022-10-16T03:25:37.545Z,1.00
2022-10-16T03:28:06.235Z,1.00
2022-10-16T03:30:34.431Z,99.90
2022-10-16T03:33:02.693Z,1.00
2022-10-16T03:35:32.313Z,99.90
2022-10-16T03:38:00.497Z,99.90
2022-10-16T03:40:28.822Z,99.90
2022-10-16T03:42:58.416Z,99.90
2022-10-16T03:45:29.722Z,99.90
2022-10-16T03:47:58.090Z,99.90
2022-10-16T03:50:26.440Z,99.90
2022-10-16T03:52:56.291Z,99.90
2022-10-16T03:55:24.839Z,91.00
2022-10-16T03:57:53.191Z,97.50
2022-10-16T04:00:21.420Z,69.40
2022-10-16T04:02:49.757Z,99.90
2022-10-16T04:05:17.997Z,99.90
2022-10-16T04:07:46.264Z,1.00
2022-10-16T04:10:16.052Z,99.90
2022-10-16T04:12:44.272Z,99.90
2022-10-16T04:15:12.767Z,99.90
2022-10-16T04:17:40.975Z,99.90
2022-10-16T04:20:10.188Z,68.30
2022-10-16T04:22:38.504Z,99.90
2022-10-16T04:25:07.323Z,1.00
2022-10-16T04:27:37.394Z,1.00
2022-10-16T04:30:07.218Z,15.30
2022-10-16T04:32:35.540Z,1.00
2022-10-16T04:35:04.039Z,1.00
2022-10-16T04:37:32.335Z,1.00
2022-10-16T04:40:00.482Z,1.00
2022-10-16T04:42:28.730Z,26.70
2022-10-16T04:44:58.482Z,1.00
2022-10-16T04:47:27.017Z,57.50
2022-10-16T04:49:55.415Z,99.90
2022-10-16T04:52:25.657Z,99.90
2022-10-16T04:54:55.031Z,99.90
2022-10-16T04:57:23.434Z,99.90
2022-10-16T04:59:51.821Z,99.90
2022-10-16T05:02:21.565Z,99.90
2022-10-16T05:04:49.909Z,99.90
2022-10-16T05:07:18.122Z,99.90
2022-10-16T05:09:46.435Z,1.00
2022-10-16T05:12:14.709Z,1.00
2022-10-16T05:14:42.974Z,1.00
2022-10-16T05:17:11.353Z,1.00
2022-10-16T05:19:41.306Z,1.00
2022-10-16T05:22:09.686Z,1.00
2022-10-16T05:24:37.981Z,1.00
2022-10-16T05:27:06.219Z,1.00
2022-10-16T05:29:34.439Z,1.00
2022-10-16T05:32:02.682Z,1.00
2022-10-16T05:34:30.883Z,1.00
2022-10-16T05:37:00.858Z,99.90
2022-10-16T05:39:29.069Z,99.90
2022-10-16T05:41:57.247Z,99.90
2022-10-16T05:44:25.635Z,1.00
2022-10-16T05:46:53.824Z,1.00
2022-10-16T05:49:22.139Z,1.00
2022-10-16T05:51:50.316Z,1.00
2022-10-16T05:54:20.003Z,1.00
2022-10-16T05:56:48.236Z,99.90
2022-10-16T05:59:16.636Z,99.90
2022-10-16T06:01:44.943Z,99.90
2022-10-16T06:04:13.169Z,99.90
2022-10-16T06:06:41.510Z,99.90
2022-10-16T06:09:09.711Z,99.90
2022-10-16T06:11:39.415Z,99.90
2022-10-16T06:14:08.640Z,99.90
2022-10-16T06:16:37.764Z,99.90
2022-10-16T06:19:07.405Z,99.90
2022-10-16T06:21:35.982Z,99.90
2022-10-16T06:24:04.350Z,99.90
2022-10-16T06:26:33.631Z,99.90
2022-10-16T06:29:03.573Z,99.90
2022-10-16T06:31:34.602Z,99.90
2022-10-16T06:34:04.389Z,5.60
2022-10-16T06:36:32.648Z,1.00
2022-10-16T06:39:00.928Z,1.00
2022-10-16T06:41:29.369Z,99.90
2022-10-16T06:43:59.010Z,99.90
2022-10-16T06:46:29.449Z,99.90
2022-10-16T06:48:57.753Z,1.00
2022-10-16T06:51:26.925Z,1.00
2022-10-16T06:54:05.037Z,1.00
2022-10-16T06:56:34.628Z,1.00
2022-10-16T06:59:03.415Z,1.00
2022-10-16T07:01:34.027Z,1.00
2022-10-16T07:04:03.411Z,1.00
2022-10-16T07:06:35.337Z,1.00
2022-10-16T07:09:06.597Z,1.00
2022-10-16T07:11:35.794Z,99.90
2022-10-16T07:14:04.484Z,99.90
2022-10-16T07:16:35.189Z,1.00
2022-10-16T07:19:04.827Z,99.90
2022-10-16T07:21:36.684Z,99.90
2022-10-16T07:24:07.298Z,99.90
2022-10-16T07:26:40.115Z,99.90
2022-10-16T07:29:11.169Z,1.00
2022-10-16T07:31:41.324Z,99.90
2022-10-16T07:34:10.093Z,1.00
2022-10-16T07:39:11.170Z,72.30
2022-10-16T07:41:39.560Z,1.00
2022-10-16T07:44:07.990Z,99.90
2022-10-16T07:46:37.280Z,99.90
2022-10-16T07:49:07.047Z,99.90
2022-10-16T07:51:35.517Z,99.90
2022-10-16T07:54:03.870Z,25.20
2022-10-16T07:56:33.739Z,99.90
2022-10-16T07:59:02.011Z,1.00
2022-10-16T08:01:30.399Z,48.60
2022-10-16T08:03:58.679Z,99.90
2022-10-16T08:06:28.591Z,99.90
2022-10-16T08:08:57.619Z,99.90
2022-10-16T08:11:26.147Z,38.40
2022-10-16T08:13:54.558Z,99.90
2022-10-16T08:16:23.526Z,99.90
2022-10-16T08:18:52.815Z,1.00
2022-10-16T08:21:22.681Z,99.90
2022-10-16T08:23:57.011Z,1.00
2022-10-16T08:26:28.540Z,99.90
2022-10-16T08:28:57.793Z,1.00
2022-10-16T08:31:27.336Z,99.90
2022-10-16T08:33:56.029Z,99.90
2022-10-16T08:36:24.293Z,99.90
2022-10-16T08:38:55.646Z,1.00
2022-10-16T08:41:48.290Z,99.90
2022-10-16T08:44:32.972Z,1.00
2022-10-16T08:47:10.291Z,1.00
2022-10-16T08:49:40.005Z,1.00
2022-10-16T08:52:14.865Z,1.00
2022-10-16T08:54:48.729Z,99.90
2022-10-16T08:57:24.420Z,95.30
2022-10-16T08:59:53.414Z,1.00
2022-10-16T09:02:29.411Z,98.20
2022-10-16T09:05:25.193Z,95.60
2022-10-16T09:08:05.675Z,99.90
2022-10-16T09:10:46.226Z,1.00
2022-10-16T09:13:22.739Z,99.90
2022-10-16T09:15:57.271Z,1.00
2022-10-16T09:18:32.882Z,1.00
2022-10-16T09:21:08.027Z,1.00
2022-10-16T09:23:38.818Z,1.00
2022-10-16T09:26:13.758Z,1.00
2022-10-16T09:28:42.383Z,1.00
2022-10-16T09:31:18.740Z,1.00
2022-10-16T09:33:52.469Z,1.00
2022-10-16T09:36:22.637Z,1.00
2022-10-16T09:39:04.267Z,1.00
2022-10-16T09:41:38.125Z,1.00
2022-10-16T09:44:09.040Z,99.90
2022-10-16T09:46:38.890Z,99.90
2022-10-16T09:49:21.204Z,1.00
2022-10-16T09:51:50.071Z,1.00
2022-10-16T09:54:20.640Z,99.90
2022-10-16T09:56:53.024Z,99.90
2022-10-16T09:59:24.852Z,99.90
2022-10-16T10:01:54.951Z,99.90
2022-10-16T10:04:26.733Z,99.90
2022-10-16T10:06:57.027Z,99.90
2022-10-16T10:09:27.273Z,99.90
2022-10-16T10:11:59.019Z,99.90
2022-10-16T10:14:31.968Z,99.90
2022-10-16T10:17:19.572Z,99.90
2022-10-16T10:19:52.336Z,99.90
2022-10-16T10:22:31.048Z,99.90
2022-10-16T10:25:17.398Z,99.90
2022-10-16T10:28:02.044Z,99.90
2022-10-16T10:30:38.536Z,99.90
2022-10-16T10:33:21.073Z,99.90
2022-10-16T10:35:58.513Z,99.90
2022-10-16T10:38:40.462Z,99.90
2022-10-16T10:41:31.415Z,99.90
2022-10-16T10:44:10.309Z,99.90
2022-10-16T10:46:45.728Z,99.90
2022-10-16T10:49:30.162Z,99.90
2022-10-16T10:52:07.646Z,99.90
2022-10-16T10:54:43.649Z,99.90
2022-10-16T10:57:21.365Z,99.90
2022-10-16T11:00:04.341Z,99.90
2022-10-16T11:02:38.716Z,99.90
2022-10-16T11:05:39.491Z,99.90
2022-10-16T11:08:13.071Z,99.90
2022-10-16T11:10:49.642Z,99.90
2022-10-16T11:13:30.680Z,99.90
2022-10-16T11:16:04.101Z,99.90
2022-10-16T11:18:41.341Z,99.90
2022-10-16T11:21:12.506Z,99.90
2022-10-16T11:23:45.319Z,99.90
2022-10-16T11:26:19.583Z,99.90
2022-10-16T11:28:51.576Z,99.90
2022-10-16T11:31:27.003Z,99.90
2022-10-16T11:36:38.717Z,99.90
2022-10-16T11:39:17.472Z,99.90
2022-10-16T11:41:51.269Z,99.90
2022-10-16T11:44:34.601Z,99.90
2022-10-16T11:50:22.259Z,99.90
2022-10-16T11:52:55.913Z,99.90
2022-10-16T11:55:31.628Z,99.90
2022-10-16T11:58:05.337Z,99.90
2022-10-16T12:00:40.777Z,99.90
2022-10-16T12:03:20.086Z,99.90
2022-10-16T12:06:08.606Z,99.90
2022-10-16T12:08:37.541Z,99.90
2022-10-16T12:11:10.584Z,99.90
2022-10-16T12:13:41.674Z,99.90
2022-10-16T12:16:23.915Z,99.90
2022-10-16T12:19:13.269Z,99.90
2022-10-16T12:21:42.263Z,99.90
2022-10-16T12:24:28.960Z,99.90
2022-10-16T12:26:57.432Z,99.90
2022-10-16T12:29:33.948Z,99.90
2022-10-16T12:32:03.069Z,99.90
2022-10-16T12:34:40.012Z,99.90
2022-10-16T12:37:20.985Z,99.90
2022-10-16T12:39:50.796Z,99.90
2022-10-16T12:42:34.475Z,99.90
2022-10-16T12:45:04.533Z,99.90
2022-10-16T12:47:49.225Z,99.90
2022-10-16T12:50:32.833Z,99.90
2022-10-16T12:53:01.698Z,99.90
2022-10-16T12:55:36.721Z,99.90
2022-10-16T12:58:24.941Z,99.90
2022-10-16T13:00:59.320Z,99.90
2022-10-16T13:03:54.004Z,99.90
2022-10-16T13:06:46.638Z,99.90
2022-10-16T13:09:35.898Z,99.90
2022-10-16T13:12:25.748Z,99.90
2022-10-16T13:15:18.632Z,99.90
2022-10-16T13:17:56.048Z,99.90
2022-10-16T13:20:31.679Z,99.90
2022-10-16T13:23:11.032Z,99.90
2022-10-16T13:25:53.461Z,99.90
2022-10-16T13:28:24.184Z,99.90
2022-10-16T13:30:55.446Z,99.90
2022-10-16T13:33:32.612Z,99.90
2022-10-16T13:36:01.550Z,99.90
2022-10-16T13:38:33.797Z,99.90
2022-10-16T13:41:04.503Z,99.90
2022-10-16T13:43:38.227Z,99.90
2022-10-16T13:46:09.318Z,99.90
2022-10-16T13:48:37.687Z,1.00
2022-10-16T13:51:09.019Z,1.00
2022-10-16T13:53:39.096Z,1.00
2022-10-16T13:56:09.351Z,1.00
2022-10-16T13:58:37.867Z,99.90
2022-10-16T14:01:07.855Z,1.00
2022-10-16T14:03:37.744Z,99.90
2022-10-16T14:06:10.079Z,1.00
2022-10-16T14:08:43.592Z,99.90
2022-10-16T14:11:24.609Z,99.90
2022-10-16T14:13:54.021Z,1.00
2022-10-16T14:16:25.499Z,1.00
2022-10-16T14:19:00.252Z,1.00
2022-10-16T14:21:29.495Z,1.00
2022-10-16T14:23:59.174Z,1.00
2022-10-16T14:26:29.982Z,1.00
2022-10-16T14:29:13.614Z,1.00
2022-10-16T14:31:42.631Z,1.00
2022-10-16T14:34:32.876Z,1.00
2022-10-16T14:37:05.757Z,99.90
2022-10-16T14:39:36.382Z,99.90
2022-10-16T14:42:04.894Z,99.90
2022-10-16T14:44:35.371Z,99.90
2022-10-16T14:47:15.208Z,99.90
2022-10-16T14:49:44.387Z,1.00
2022-10-16T14:52:14.193Z,1.00
2022-10-16T14:54:43.926Z,1.00
2022-10-16T14:57:20.127Z,1.00
2022-10-16T14:59:52.226Z,1.00
2022-10-16T15:02:33.998Z,1.00
2022-10-16T15:05:13.566Z,1.00
2022-10-16T15:07:42.024Z,99.90
2022-10-16T15:10:12.151Z,99.90
2022-10-16T15:12:40.573Z,99.90
2022-10-16T15:15:34.367Z,99.90
2022-10-16T15:18:03.824Z,1.00
2022-10-16T15:20:34.966Z,1.00
2022-10-16T15:23:04.554Z,99.90
2022-10-16T15:25:46.666Z,1.00
2022-10-16T15:28:16.687Z,1.00
2022-10-16T15:30:46.449Z,1.00
2022-10-16T15:33:17.140Z,5.00
2022-10-16T15:35:48.238Z,1.00
2022-10-16T15:38:17.328Z,99.90
2022-10-16T15:40:48.462Z,1.00
2022-10-16T15:43:17.077Z,1.00
2022-10-16T15:45:45.416Z,1.00
2022-10-16T15:48:14.713Z,1.00
2022-10-16T15:53:13.092Z,99.90
2022-10-16T15:55:41.466Z,99.90
2022-10-16T15:58:11.581Z,99.90
2022-10-16T16:00:39.921Z,1.00
2022-10-16T16:03:08.435Z,99.90
2022-10-16T16:05:44.119Z,1.00
2022-10-16T16:08:14.963Z,1.00
2022-10-16T16:10:43.282Z,1.00
2022-10-16T16:13:13.232Z,1.00
2022-10-16T16:15:42.376Z,1.00
2022-10-16T16:18:11.118Z,1.00
2022-10-16T16:20:39.596Z,99.90
2022-10-16T16:23:08.215Z,99.90
2022-10-16T16:25:37.857Z,1.00
2022-10-16T16:28:08.318Z,99.90
2022-10-16T16:30:38.099Z,97.80
2022-10-16T16:33:06.494Z,99.90
2022-10-16T16:35:34.975Z,96.60
2022-10-16T16:38:03.239Z,1.00
2022-10-16T16:40:31.891Z,1.00
2022-10-16T16:43:00.154Z,1.00
2022-10-16T16:47:58.853Z,99.90
2022-10-16T16:50:27.243Z,1.00
2022-10-16T16:52:55.927Z,1.00
2022-10-16T16:55:24.279Z,99.90
2022-10-16T16:57:52.660Z,99.90
2022-10-16T17:00:21.123Z,99.90
2022-10-16T17:02:51.406Z,1.00
2022-10-16T17:05:21.382Z,1.00
2022-10-16T17:07:49.760Z,99.90
2022-10-16T17:10:18.233Z,99.90
2022-10-16T17:12:46.612Z,1.00
2022-10-16T17:15:14.959Z,1.00
2022-10-16T17:17:43.602Z,1.00
2022-10-16T17:20:12.427Z,1.00
2022-10-16T17:22:42.203Z,1.00
2022-10-16T17:25:11.064Z,1.00
2022-10-16T17:27:39.726Z,12.00
2022-10-16T17:30:10.318Z,99.90
2022-10-16T17:32:39.025Z,99.90
2022-10-16T17:35:08.800Z,99.90
2022-10-16T17:37:37.224Z,99.90
2022-10-16T17:40:08.147Z,1.00
2022-10-16T17:42:36.869Z,1.00
2022-10-16T17:45:05.608Z,1.00
2022-10-16T17:47:34.124Z,1.00
2022-10-16T17:50:02.535Z,1.00
2022-10-16T17:52:30.936Z,1.00
2022-10-16T17:54:59.332Z,1.00
2022-10-16T17:57:29.183Z,1.00
2022-10-16T17:59:57.550Z,1.00
2022-10-16T18:02:26.649Z,1.00
2022-10-16T18:04:55.794Z,59.00
2022-10-16T18:07:24.172Z,99.90
2022-10-16T18:10:11.906Z,99.90
2022-10-16T18:12:42.100Z,99.90
2022-10-16T18:15:11.191Z,99.90
2022-10-16T18:17:39.503Z,99.90
2022-10-16T18:20:09.267Z,99.90
2022-10-16T18:22:38.202Z,99.90
2022-10-16T18:25:07.743Z,99.90
2022-10-16T18:27:36.322Z,99.90
2022-10-16T18:30:07.264Z,99.90
2022-10-16T18:32:35.951Z,99.90
2022-10-16T18:35:04.373Z,99.90
2022-10-16T18:37:32.706Z,99.90
2022-10-16T18:40:01.007Z,99.90
2022-10-16T18:42:29.416Z,99.90
2022-10-16T18:44:57.880Z,99.90
2022-10-16T18:47:27.795Z,95.80
2022-10-16T18:49:56.372Z,1.00
2022-10-16T18:52:26.929Z,1.00
2022-10-16T18:54:58.336Z,1.00
2022-10-16T18:57:30.512Z,50.60
2022-10-16T18:59:59.068Z,99.90
2022-10-16T19:02:28.812Z,99.90
2022-10-16T19:04:57.134Z,99.90
2022-10-16T19:07:25.839Z,99.90
2022-10-16T19:09:54.856Z,99.90
2022-10-16T19:12:23.239Z,1.00
2022-10-16T19:14:51.570Z,1.00
2022-10-16T19:17:19.989Z,1.00
2022-10-16T19:19:49.739Z,1.00
2022-10-16T19:22:28.355Z,1.00
2022-10-16T19:24:57.090Z,1.00
2022-10-16T19:27:25.499Z,1.00
2022-10-16T19:29:53.816Z,1.00
2022-10-16T19:32:22.181Z,1.00
2022-10-16T19:34:52.791Z,1.00
2022-10-16T19:37:25.900Z,1.00
2022-10-16T19:39:54.277Z,1.00
2022-10-16T19:42:22.529Z,1.00
2022-10-16T19:44:51.426Z,4.70
2022-10-16T19:47:22.286Z,13.10
2022-10-16T19:49:53.559Z,19.90
2022-10-16T19:52:23.309Z,33.20
2022-10-16T19:54:51.808Z,90.10
2022-10-16T19:57:23.791Z,99.90
2022-10-16T19:59:53.522Z,21.00
2022-10-16T20:02:22.146Z,9.30
2022-10-16T20:04:50.432Z,65.30
2022-10-16T20:07:21.167Z,94.80
2022-10-16T20:09:49.598Z,99.90
2022-10-16T20:12:18.322Z,99.90
2022-10-16T20:14:46.812Z,99.90
2022-10-16T20:17:15.167Z,99.90
2022-10-16T20:19:43.462Z,99.90
2022-10-16T20:22:11.833Z,74.20
2022-10-16T20:24:41.905Z,99.90
2022-10-16T20:27:10.341Z,99.90
2022-10-16T20:29:38.854Z,99.90
2022-10-16T20:32:07.357Z,99.90
2022-10-16T20:34:35.970Z,99.90
2022-10-16T20:37:04.342Z,99.90
2022-10-16T20:39:32.837Z,99.90
2022-10-16T20:42:02.548Z,99.90
2022-10-16T20:44:30.959Z,81.60
2022-10-16T20:46:59.220Z,99.90
2022-10-16T20:49:40.290Z,99.90
2022-10-16T20:52:09.209Z,99.90
2022-10-16T20:54:37.515Z,99.90
2022-10-16T20:57:07.195Z,99.90
2022-10-16T20:59:35.678Z,99.90
2022-10-16T21:02:05.611Z,99.90
2022-10-16T21:04:37.594Z,99.90
2022-10-16T21:07:09.335Z,99.90
2022-10-16T21:09:38.095Z,99.90
2022-10-16T21:12:09.982Z,99.90
2022-10-16T21:14:42.277Z,99.90
2022-10-16T21:17:14.746Z,99.90
2022-10-16T21:19:43.171Z,99.90
2022-10-16T21:22:11.620Z,99.90
2022-10-16T21:24:40.065Z,99.90
2022-10-16T21:27:09.924Z,99.90
2022-10-16T21:29:38.330Z,99.90
2022-10-16T21:32:06.585Z,99.90
2022-10-16T21:34:36.214Z,99.90
2022-10-16T21:37:04.578Z,99.90
2022-10-16T21:39:33.068Z,99.90
2022-10-16T21:42:01.454Z,99.90
2022-10-16T21:44:31.173Z,99.90
2022-10-16T21:46:59.525Z,99.90
2022-10-16T21:49:27.841Z,99.90
2022-10-16T21:51:56.075Z,99.90
2022-10-16T21:54:25.237Z,99.90
2022-10-16T21:56:53.662Z,99.90
2022-10-16T21:59:22.182Z,99.90
2022-10-16T22:01:54.808Z,99.90
2022-10-16T22:04:23.300Z,99.90
2022-10-16T22:06:51.989Z,99.90
2022-10-16T22:09:20.277Z,99.90
